createdAt,value
2019-03-20T00:02:49.274Z,69.17
2019-03-20T00:06:56.541Z,69.69
2019-03-20T00:11:03.471Z,69.42
2019-03-20T00:15:12.010Z,69.06
2019-03-20T00:19:19.014Z,69.35
2019-03-20T00:23:26.033Z,69.38
2019-03-20T00:27:33.058Z,69.58
2019-03-20T00:31:39.882Z,69.93
2019-03-20T00:35:47.929Z,70.44
2019-03-20T00:39:54.877Z,70.63
2019-03-20T00:44:01.732Z,71.04
2019-03-20T00:48:08.621Z,70.74
2019-03-20T00:52:15.555Z,71.82
2019-03-20T00:56:22.476Z,70.70
2019-03-20T01:00:29.436Z,70.98
2019-03-20T01:04:36.280Z,70.33
2019-03-20T01:08:43.107Z,70.55
2019-03-20T01:12:50.106Z,71.30
2019-03-20T01:16:57.269Z,71.53
2019-03-20T01:21:04.214Z,72.36
2019-03-20T01:25:12.386Z,72.62
2019-03-20T01:29:19.325Z,72.28
2019-03-20T01:33:26.270Z,72.56
2019-03-20T01:37:33.123Z,72.35
2019-03-20T01:41:40.017Z,72.58
2019-03-20T01:45:46.869Z,72.65
2019-03-20T01:49:53.687Z,72.90
2019-03-20T01:54:00.513Z,72.47
2019-03-20T01:58:07.598Z,72.62
2019-03-20T02:02:14.800Z,72.83
2019-03-20T02:06:21.764Z,72.95
2019-03-20T02:10:28.601Z,73.17
2019-03-20T02:14:35.665Z,73.83
2019-03-20T02:18:42.635Z,73.32
2019-03-20T02:22:49.627Z,73.53
2019-03-20T02:26:56.441Z,73.49
2019-03-20T02:31:03.261Z,73.40
2019-03-20T02:35:10.314Z,73.21
2019-03-20T02:39:17.415Z,74.28
2019-03-20T02:43:24.367Z,73.51
2019-03-20T02:47:31.221Z,73.28
2019-03-20T02:51:38.107Z,74.00
2019-03-20T02:55:45.029Z,74.33
2019-03-20T02:59:51.898Z,74.27
2019-03-20T03:03:58.852Z,74.67
2019-03-20T03:08:05.921Z,74.49
2019-03-20T03:12:12.848Z,74.36
2019-03-20T03:16:19.816Z,74.28
2019-03-20T03:20:26.632Z,74.42
2019-03-20T03:24:33.566Z,74.32
2019-03-20T03:28:40.442Z,74.80
2019-03-20T03:32:47.712Z,74.54
2019-03-20T03:36:54.636Z,75.04
2019-03-20T03:41:01.529Z,75.23
2019-03-20T03:45:10.075Z,75.18
2019-03-20T03:49:17.012Z,75.04
2019-03-20T03:53:24.072Z,75.07
2019-03-20T03:57:31.034Z,75.45
2019-03-20T04:01:37.838Z,75.24
2019-03-20T04:05:44.690Z,75.71
2019-03-20T04:09:51.546Z,76.38
2019-03-20T04:13:58.396Z,76.76
2019-03-20T04:18:05.528Z,76.74
2019-03-20T04:22:12.442Z,77.18
2019-03-20T04:26:20.341Z,76.78
2019-03-20T04:30:27.197Z,77.17
2019-03-20T04:34:34.062Z,76.99
2019-03-20T04:38:41.581Z,77.24
2019-03-20T04:42:48.437Z,77.79
2019-03-20T04:46:55.314Z,77.56
2019-03-20T04:51:02.239Z,77.43
2019-03-20T04:55:09.551Z,77.09
2019-03-20T04:59:16.611Z,77.69
2019-03-20T05:03:23.585Z,77.70
2019-03-20T05:07:31.251Z,77.68
2019-03-20T05:11:38.441Z,77.52
2019-03-20T05:15:45.383Z,77.38
2019-03-20T05:19:52.528Z,76.89
2019-03-20T05:23:59.813Z,77.35
2019-03-20T05:28:06.928Z,76.91
2019-03-20T05:32:14.906Z,76.85
2019-03-20T05:36:23.668Z,77.37
2019-03-20T05:40:30.558Z,76.59
2019-03-20T05:44:37.561Z,75.88
2019-03-20T05:48:44.727Z,76.11
2019-03-20T05:52:51.966Z,76.68
2019-03-20T05:56:59.145Z,75.73
2019-03-20T06:01:06.681Z,75.64
2019-03-20T06:05:14.141Z,75.61
2019-03-20T06:09:21.391Z,75.41
2019-03-20T06:13:28.380Z,75.39
2019-03-20T06:17:35.532Z,76.07
2019-03-20T06:21:42.383Z,75.51
2019-03-20T06:25:51.419Z,74.95
2019-03-20T06:29:58.130Z,74.80
2019-03-20T06:34:05.071Z,74.84
2019-03-20T06:38:12.103Z,74.08
2019-03-20T06:42:20.079Z,73.37
2019-03-20T06:46:27.158Z,73.33
2019-03-20T06:50:34.056Z,72.92
2019-03-20T06:54:41.913Z,72.59
2019-03-20T06:58:50.400Z,72.62
2019-03-20T07:02:58.193Z,71.45
2019-03-20T07:07:43.679Z,72.09
2019-03-20T07:11:43.527Z,71.59
2019-03-20T07:19:56.266Z,71.97
2019-03-20T07:24:03.384Z,71.17
2019-03-20T07:28:10.613Z,71.11
2019-03-20T07:32:17.861Z,71.20
2019-03-20T07:49:33.484Z,69.13
2019-03-20T07:53:42.929Z,69.01
2019-03-20T07:57:50.108Z,68.22
2019-03-20T08:02:00.183Z,67.08
2019-03-20T08:06:07.648Z,66.01
2019-03-20T08:10:15.339Z,65.68
2019-03-20T08:14:33.591Z,64.84
2019-03-20T08:18:41.254Z,63.83
2019-03-20T08:22:48.391Z,62.60
2019-03-20T08:26:58.766Z,61.80
2019-03-20T08:31:06.348Z,59.97
2019-03-20T08:35:13.599Z,57.45
2019-03-20T08:39:21.033Z,57.04
2019-03-20T08:43:29.910Z,54.60
2019-03-20T08:47:36.880Z,52.75
2019-03-20T08:51:44.136Z,52.34
2019-03-20T08:55:51.001Z,50.78
2019-03-20T09:00:01.367Z,49.03
2019-03-20T09:04:09.795Z,47.54
2019-03-20T09:08:16.887Z,46.58
2019-03-20T09:12:23.842Z,44.88
2019-03-20T09:16:31.998Z,45.44
2019-03-20T09:20:39.192Z,43.91
2019-03-20T09:24:46.658Z,42.10
2019-03-20T09:28:53.767Z,42.36
2019-03-20T09:33:01.816Z,41.48
2019-03-20T09:37:12.281Z,40.71
2019-03-20T09:41:19.576Z,39.84
2019-03-20T09:45:26.955Z,39.75
2019-03-20T09:49:40.532Z,41.07
2019-03-20T09:53:47.692Z,40.47
2019-03-20T09:57:54.941Z,40.49
2019-03-20T10:02:02.999Z,40.83
2019-03-20T10:06:10.350Z,40.67
2019-03-20T10:10:20.225Z,39.31
2019-03-20T10:14:33.412Z,39.78
2019-03-20T10:18:41.655Z,39.23
2019-03-20T10:22:50.601Z,39.35
2019-03-20T10:26:57.914Z,38.52
2019-03-20T10:31:08.319Z,39.24
2019-03-20T10:35:16.557Z,38.68
2019-03-20T10:39:25.379Z,37.85
2019-03-20T10:43:34.211Z,38.99
2019-03-20T10:47:41.710Z,37.13
2019-03-20T10:51:49.009Z,37.21
2019-03-20T10:55:56.281Z,36.08
2019-03-20T11:00:05.097Z,37.56
2019-03-20T11:04:13.056Z,35.62
2019-03-20T11:08:20.215Z,34.60
2019-03-20T11:12:27.336Z,34.38
2019-03-20T11:16:34.493Z,33.67
2019-03-20T11:20:41.500Z,33.14
2019-03-20T11:24:51.512Z,31.91
2019-03-20T11:29:02.087Z,33.25
2019-03-20T11:33:21.569Z,32.79
2019-03-20T11:37:43.308Z,33.91
2019-03-20T11:41:51.483Z,33.22
2019-03-20T11:45:58.590Z,32.21
2019-03-20T11:50:15.990Z,31.30
2019-03-20T11:54:23.313Z,30.70
2019-03-20T11:58:36.857Z,31.79
2019-03-20T12:02:47.459Z,31.55
2019-03-20T12:06:55.460Z,30.71
2019-03-20T12:11:10.886Z,30.26
2019-03-20T12:15:21.314Z,30.19
2019-03-20T12:19:32.231Z,30.50
2019-03-20T12:23:45.413Z,29.71
2019-03-20T12:27:58.652Z,29.65
2019-03-20T12:32:08.548Z,28.10
2019-03-20T12:36:15.814Z,28.47
2019-03-20T12:40:26.995Z,28.20
2019-03-20T12:44:49.333Z,28.44
2019-03-20T12:49:11.466Z,27.26
2019-03-20T12:53:19.159Z,27.30
2019-03-20T12:57:43.575Z,26.44
2019-03-20T13:01:53.142Z,26.90
2019-03-20T13:06:04.902Z,26.81
2019-03-20T13:10:24.563Z,26.92
2019-03-20T13:14:39.370Z,26.95
2019-03-20T13:18:58.229Z,26.50
2019-03-20T13:23:14.417Z,27.04
2019-03-20T13:27:25.565Z,27.50
2019-03-20T13:31:34.173Z,26.60
2019-03-20T13:36:09.152Z,26.08
2019-03-20T13:40:16.802Z,26.09
2019-03-20T13:44:24.000Z,26.01
2019-03-20T13:48:39.318Z,26.17
2019-03-20T13:52:49.645Z,25.85
2019-03-20T13:57:02.329Z,26.31
2019-03-20T14:17:53.345Z,26.59
2019-03-20T14:22:15.542Z,27.79
2019-03-20T14:26:49.070Z,28.50
2019-03-20T14:31:24.095Z,28.70
2019-03-20T14:35:42.991Z,27.98
2019-03-20T14:50:31.270Z,28.83
2019-03-20T15:10:34.643Z,34.03
2019-03-20T15:15:31.146Z,31.44
2019-03-20T15:19:54.291Z,32.43
2019-03-20T15:25:11.983Z,31.72
2019-03-20T15:33:43.980Z,33.65
2019-03-20T15:37:50.950Z,33.40
2019-03-20T15:42:00.615Z,33.74
2019-03-20T15:46:17.883Z,35.38
2019-03-20T15:50:28.117Z,35.53
2019-03-20T15:54:35.049Z,35.48
2019-03-20T15:58:44.424Z,35.48
2019-03-20T16:03:01.857Z,34.89
2019-03-20T16:07:17.437Z,36.04
2019-03-20T16:11:25.559Z,37.21
2019-03-20T16:15:33.549Z,36.88
2019-03-20T16:19:44.324Z,37.17
2019-03-20T16:23:51.503Z,37.66
2019-03-20T16:28:10.889Z,38.04
2019-03-20T16:43:30.353Z,39.84
2019-03-20T16:47:39.389Z,39.86
2019-03-20T16:52:24.231Z,40.70
2019-03-20T16:56:45.887Z,40.56
2019-03-20T17:01:47.722Z,40.54
2019-03-20T17:06:48.542Z,40.51
2019-03-20T17:10:58.166Z,40.80
2019-03-20T17:15:20.198Z,40.82
2019-03-20T17:25:13.246Z,41.02
2019-03-20T17:29:08.994Z,41.42
2019-03-20T17:33:11.649Z,41.66
2019-03-20T17:38:24.433Z,42.14
2019-03-20T17:42:32.447Z,41.71
2019-03-20T17:46:40.382Z,41.76
2019-03-20T17:51:10.762Z,41.78
2019-03-20T17:55:39.072Z,41.95
2019-03-20T18:00:23.592Z,41.30
2019-03-20T18:04:40.671Z,41.98
2019-03-20T18:09:21.413Z,41.88
2019-03-20T18:13:35.104Z,42.25
2019-03-20T18:17:46.507Z,42.11
2019-03-20T18:22:16.578Z,42.21
2019-03-20T18:26:26.688Z,42.65
2019-03-20T18:30:34.119Z,43.53
2019-03-20T18:35:04.324Z,44.14
2019-03-20T18:39:14.611Z,43.55
2019-03-20T18:43:23.928Z,43.67
2019-03-20T18:47:31.649Z,44.65
2019-03-20T18:51:50.392Z,46.22
2019-03-20T18:56:28.318Z,44.07
2019-03-20T19:01:10.109Z,44.45
2019-03-20T19:06:29.689Z,44.49
2019-03-20T19:15:45.639Z,46.68
2019-03-20T19:20:01.805Z,45.62
2019-03-20T19:24:11.776Z,46.66
2019-03-20T19:28:25.016Z,48.39
2019-03-20T19:32:33.838Z,46.50
2019-03-20T19:36:40.993Z,44.35
2019-03-20T19:40:48.768Z,44.62
2019-03-20T19:44:58.435Z,45.38
2019-03-20T19:49:05.526Z,43.92
2019-03-20T19:53:19.474Z,44.50
2019-03-20T19:57:30.290Z,44.94
2019-03-20T20:01:38.470Z,45.79
2019-03-20T20:05:45.373Z,46.49
2019-03-20T20:09:52.113Z,46.80
2019-03-20T20:13:59.439Z,46.73
2019-03-20T20:18:06.679Z,47.24
2019-03-20T20:22:17.643Z,47.98
2019-03-20T20:26:33.205Z,48.81
2019-03-20T20:30:46.051Z,49.11
2019-03-20T20:34:54.921Z,50.01
2019-03-20T20:39:02.274Z,50.25
2019-03-20T20:43:11.707Z,50.56
2019-03-20T20:47:21.764Z,50.58
2019-03-20T20:51:31.266Z,50.90
2019-03-20T20:55:38.374Z,50.79
2019-03-20T20:59:46.751Z,52.16
2019-03-20T21:03:53.571Z,52.71
2019-03-20T21:08:00.932Z,52.79
2019-03-20T21:12:07.777Z,54.45
2019-03-20T21:16:18.644Z,53.41
2019-03-20T21:20:26.554Z,53.85
2019-03-20T21:24:36.934Z,53.60
2019-03-20T21:29:54.770Z,53.70
2019-03-20T21:34:59.495Z,54.57
2019-03-20T21:39:09.556Z,53.85
2019-03-20T21:44:19.095Z,53.74
2019-03-20T21:48:26.869Z,54.06
2019-03-20T21:52:37.252Z,54.02
2019-03-20T21:57:16.487Z,54.40
2019-03-20T22:02:43.274Z,54.63
2019-03-20T22:07:24.882Z,54.69
2019-03-20T22:12:19.128Z,55.23
2019-03-20T22:17:15.111Z,55.67
2019-03-20T22:22:28.409Z,55.91
2019-03-20T22:27:47.207Z,55.47
2019-03-20T22:32:40.208Z,56.59
2019-03-20T22:36:47.979Z,56.04
2019-03-20T22:41:40.423Z,56.67
2019-03-20T22:47:14.707Z,56.00
2019-03-20T22:52:04.670Z,56.24
2019-03-20T22:57:03.121Z,56.76
2019-03-20T23:01:12.752Z,57.53
2019-03-20T23:05:20.897Z,57.45
2019-03-20T23:09:28.831Z,58.22
2019-03-20T23:13:41.827Z,58.48
2019-03-20T23:17:47.629Z,58.45
2019-03-20T23:21:55.280Z,59.25
2019-03-20T23:26:02.962Z,59.68
2019-03-20T23:30:16.396Z,60.26
2019-03-20T23:34:24.042Z,60.84
2019-03-20T23:38:31.653Z,61.11
2019-03-20T23:42:39.395Z,61.18
2019-03-20T23:46:47.031Z,61.39
2019-03-20T23:51:01.108Z,61.77
2019-03-20T23:55:11.736Z,61.62
2019-03-20T23:59:19.460Z,62.18
